• Join FlightAware (Why Join?)
  • Login
  • US Flag 
04:39AM EDT


 

Airport Tracker/Info


-or-


 

Live Flight TrackerFlight Track Log ✈ DAL1981 ✈ 03-Aug-2013 ✈ KSMF - KMSP

Flight Track Log - Related Links

Times and Time Zones

All times are in EDT time to prevent confusion due to time zone crossing. See the DAL1981 flight status page for this flight to view local times or setup timezone preferences in your user account.

Time Position Orientation Groundspeed Altitude Reporting Facility
EDT Latitude Longitude Course Direction KTS MPH feet Rate Location/Type
03:59PM 38.6500 -121.5333 78° East 192 221 2,200  Level Northern Cal TRACON
04:00PM 38.6500 -121.4500 90° East 263 303 3,800 2,340 Climbing Northern Cal TRACON
04:01PM 38.5022 -121.2267 67° East  Level FlightAware Approximate
04:01PM 38.6500 -121.3500 90° East 305 351 6,900  Level Northern Cal TRACON
04:02PM 38.5415 -121.0595 76° East  Level FlightAware Approximate
04:02PM 38.6500 -121.2667 90° East 282 325 9,100  Level Northern Cal TRACON
04:03PM 38.5714 -120.8888 78° East  Level FlightAware Approximate
04:03PM 38.6667 -121.1500 80° East 314 361 10,700  Level Northern Cal TRACON
04:04PM 38.5998 -120.7176 78° East  Level FlightAware Approximate
04:04PM 38.6644 -121.1089 94° East 323 372 11,100  Level Oakland Center
04:05PM 38.6731 -120.9756 85° East 365 420 13,400 2,040 Climbing Oakland Center
04:06PM 38.6822 -120.8097 86° East 391 450 15,300 1,800 Climbing Oakland Center
04:07PM 38.7103 -120.6692 76° East 421 484 17,100 1,560 Climbing Oakland Center
04:08PM 38.7583 -120.5322 66° East 422 486 18,600 900 Climbing Oakland Center
04:09PM 38.8100 -120.3914 65° Northeast 433 498 19,000 660 Climbing Oakland Center
04:10PM 38.8614 -120.2503 65° Northeast 437 503 20,000 1,260 Climbing Oakland Center
04:11PM 38.9119 -120.1047 66° East 443 510 21,600 1,500 Climbing Oakland Center
04:12PM 38.9703 -119.9467 65° Northeast 455 524 23,100 1,260 Climbing Oakland Center
04:13PM 39.0236 -119.7953 66° East 463 533 24,300 1,260 Climbing Oakland Center
04:14PM 39.0797 -119.6394 65° Northeast 477 549 25,700 1,140 Climbing Oakland Center
04:15PM 39.1358 -119.4817 65° Northeast 484 557 26,700 900 Climbing Oakland Center
04:16PM 39.1919 -119.3208 66° East 492 566 27,600 960 Climbing Oakland Center
04:17PM 39.2586 -119.1250 66° East 497 572 28,700 900 Climbing Oakland Center
04:18PM 39.3086 -118.9817 66° East 500 575 29,500 900 Climbing Oakland Center
04:19PM 39.3650 -118.8175 66° East 498 573 30,600 900 Climbing Oakland Center
04:20PM 39.4236 -118.6483 66° East 510 587 31,400 840 Climbing Oakland Center
04:22PM 39.5358 -118.3147 66° East 502 578 33,300 900 Climbing Salt Lake Center
04:23PM 39.5906 -118.1506 67° East 499 574 34,200 720 Climbing Salt Lake Center
04:24PM 39.6581 -117.9497 66° East 505 581 34,900 360 Climbing Oakland Center
04:25PM 39.7142 -117.7844 66° East 502 578 35,000  Climbing Oakland Center
04:26PM 39.7675 -117.6153 68° East 506 582 35,000  Level Oakland Center
04:28PM 39.8819 -117.2714 66° East 498 573 35,000  Level Oakland Center
04:29PM 39.9325 -117.1128 67° East 497 572 35,000  Level Oakland Center
04:30PM 39.9914 -116.9267 68° East 499 574 35,000  Level Oakland Center
04:31PM 40.0419 -116.7667 68° East 501 577 35,000  Level Oakland Center
04:32PM 40.1019 -116.5753 68° East 505 581 35,000  Level Oakland Center
04:33PM 40.1531 -116.4156 67° East 506 582 35,000  Level Salt Lake Center
04:34PM 40.2128 -116.2278 67° East 505 581 35,000  Level Salt Lake Center
04:35PM 40.2628 -116.0639 68° East 508 585 35,000  Level Salt Lake Center
04:37PM 40.3211 -115.8733 68° East 506 582 35,000  Level Salt Lake Center
04:38PM 40.3744 -115.7100 67° East 509 586 35,000  Level Salt Lake Center
04:39PM 40.4347 -115.5194 67° East 508 585 35,000  Level Salt Lake Center
04:40PM 40.4836 -115.3550 69° East 507 583 35,000  Level Salt Lake Center
04:41PM 40.5361 -115.1642 70° East 501 577 35,000  Level Salt Lake Center
04:42PM 40.5906 -115.0008 66° East 507 583 35,000  Level Salt Lake Center
04:43PM 40.6469 -114.8100 69° East 503 579 35,000  Level Salt Lake Center
04:44PM 40.6908 -114.6597 69° East 503 579 35,000  Level Salt Lake Center
04:45PM 40.7514 -114.4542 69° East 502 578 35,000  Level Salt Lake Center
04:46PM 40.8019 -114.2836 69° East 501 577 35,000  Level Salt Lake Center
04:47PM 40.8508 -114.1100 70° East 504 580 35,000  Level Salt Lake Center
04:48PM 40.9000 -113.9378 69° East 503 579 35,000  Level Salt Lake Center
04:49PM 40.9492 -113.7653 69° East 502 578 35,000  Level Salt Lake Center
04:50PM 40.9972 -113.5919 70° East 503 579 35,000  Level Salt Lake Center
04:51PM 41.0450 -113.4189 70° East 502 578 35,000  Level Salt Lake Center
04:52PM 41.1047 -113.2092 69° East 506 582 35,000  Level Salt Lake Center
04:53PM 41.1525 -113.0328 70° East 509 586 35,000  Level Salt Lake Center
04:54PM 41.2017 -112.8556 70° East 511 588 35,000  Level Salt Lake Center
04:55PM 41.2497 -112.6769 70° East 514 592 35,000  Level Salt Lake Center
04:56PM 41.2989 -112.4986 70° East 513 590 35,000  Level Salt Lake Center
04:57PM 41.3469 -112.3200 70° East 511 588 35,000  Level Salt Lake Center
04:58PM 41.3950 -112.1408 70° East 510 587 35,000  Level Salt Lake Center
04:59PM 41.4519 -111.9247 71° East 512 589 35,000  Level Salt Lake Center
05:00PM 41.5003 -111.7447 70° East 512 589 35,000  Level Salt Lake Center
05:01PM 41.5478 -111.5631 71° East 516 594 35,000  Level Salt Lake Center
05:02PM 41.5942 -111.3822 71° East 515 593 35,000  Level Salt Lake Center
05:03PM 41.6397 -111.2025 71° East 509 586 35,000  Level Salt Lake Center
05:04PM 41.6872 -111.0228 70° East 513 590 35,000  Level Salt Lake Center
05:05PM 41.7394 -110.8147 71° East 517 595 35,000  Level Salt Lake Center
05:06PM 41.7839 -110.6408 71° East 516 594 35,000  Level Salt Lake Center
05:07PM 41.8339 -110.4361 72° East 518 596 35,000  Level Salt Lake Center
05:09PM 41.8781 -110.2592 71° East 521 600 35,000  Level Salt Lake Center
05:10PM 41.9208 -110.0828 72° East 520 598 35,000  Level Salt Lake Center
05:11PM 41.9714 -109.8772 72° East 519 597 35,000  Level Salt Lake Center
05:12PM 42.0150 -109.6986 72° East 523 602 35,000  Level Salt Lake Center
05:13PM 42.0647 -109.4900 72° East 523 602 35,000  Level Salt Lake Center
05:14PM 42.1083 -109.3108 72° East 523 602 35,000  Level Salt Lake Center
05:15PM 42.1578 -109.1022 72° East 522 601 35,000  Level Salt Lake Center
05:16PM 42.1994 -108.9222 73° East 523 602 35,000  Level Salt Lake Center
05:17PM 42.2489 -108.7111 72° East 527 606 35,000  Level Salt Lake Center
05:18PM 42.2908 -108.5294 73° East 529 609 35,000  Level Salt Lake Center
05:19PM 42.3314 -108.3472 73° East 529 609 35,000  Level Salt Lake Center
05:20PM 42.3789 -108.1361 73° East 525 604 35,000  Level Salt Lake Center
05:21PM 42.4194 -107.9553 73° East 526 605 35,000  Level Salt Lake Center
05:22PM 42.4675 -107.7456 73° East 523 602 35,000  Level Salt Lake Center
05:23PM 42.5056 -107.5622 74° East 526 605 35,000  Level Salt Lake Center
05:24PM 42.5511 -107.3489 74° East 529 609 35,000  Level Salt Lake Center
05:25PM 42.5903 -107.1650 74° East 529 609 35,000  Level Salt Lake Center
05:26PM 42.6342 -106.9664 73° East 533 613 35,000  Level Salt Lake Center
05:27PM 42.6803 -106.7511 74° East 534 615 35,000  Level Salt Lake Center
05:28PM 42.7189 -106.5633 74° East 535 616 35,100  Climbing Denver Center
05:29PM 42.7631 -106.3458 74° East 532 612 35,000 -60 Descending Denver Center
05:30PM 42.8019 -106.1600 74° East 534 615 35,000  Level Denver Center
05:31PM 42.8456 -105.9417 75° East 535 616 35,000  Level Denver Center
05:32PM 42.8844 -105.7531 74° East 539 620 35,000  Level Denver Center
05:33PM 42.9272 -105.5322 75° East 538 619 35,000  Level Denver Center
05:34PM 42.9667 -105.3442 74° East 533 613 35,000  Level Denver Center
05:35PM 43.0025 -105.1550 75° East 536 617 35,000  Level Denver Center
05:36PM 43.0456 -104.9358 75° East 532 612 35,000  Level Denver Center
05:37PM 43.0817 -104.7478 75° East 532 612 35,000  Level Denver Center
05:38PM 43.1236 -104.5261 75° East 535 616 35,000  Level Denver Center
05:40PM 43.1592 -104.3356 76° East 537 618 35,000  Level Denver Center
05:41PM 43.1939 -104.1442 76° East 538 619 35,000  Level Denver Center
05:42PM 43.2339 -103.9233 76° East 535 616 35,000  Level Denver Center
05:43PM 43.2683 -103.7353 76° East 531 611 35,000  Level Denver Center
05:44PM 43.3067 -103.5142 77° East 532 612 35,000  Level Denver Center
05:45PM 43.3406 -103.3250 76° East 533 613 35,000  Level Denver Center
05:46PM 43.3797 -103.1028 76° East 535 616 35,000  Level Denver Center
05:47PM 43.4133 -102.9131 76° East 535 616 35,000  Level Denver Center
05:48PM 43.4447 -102.7214 77° East 537 618 35,000  Level Denver Center
05:49PM 43.4831 -102.4978 77° East 538 619 35,000  Level Denver Center
05:50PM 43.5147 -102.3067 77° East 537 618 35,000  Level Denver Center
05:51PM 43.5506 -102.0869 77° East 535 616 35,000  Level Denver Center
05:52PM 43.5825 -101.8856 78° East 539 620 35,000  Level Denver Center
05:53PM 43.6158 -101.6858 77° East 538 619 35,000  Level Denver Center
05:54PM 43.6419 -101.5281 77° East 535 616 35,000  Level Minneapolis Center
05:55PM 43.6792 -101.2883 78° East 535 616 35,000  Level Minneapolis Center
05:56PM 43.7111 -101.0903 77° East 532 612 35,000  Level Minneapolis Center
05:57PM 43.7411 -100.8900 78° East 533 613 35,000  Level Minneapolis Center
05:58PM 43.7722 -100.6853 78° East 541 623 35,100  Climbing Minneapolis Center
05:59PM 43.8022 -100.4814 78° East 543 625 35,000 -60 Descending Minneapolis Center
06:00PM 43.8325 -100.2767 78° East 545 627 35,000  Level Minneapolis Center
06:01PM 43.8628 -100.0731 78° East 544 626 35,000  Level Minneapolis Center
06:02PM 43.8983 -99.8269 79° East 545 627 35,000  Level Minneapolis Center
06:03PM 43.9264 -99.6211 79° East 545 627 35,000  Level Minneapolis Center
06:04PM 43.9558 -99.4153 79° East 546 628 35,000  Level Minneapolis Center
06:05PM 43.9850 -99.2097 79° East 546 628 35,000  Level Minneapolis Center
06:06PM 44.0125 -99.0028 79° East 547 629 35,000  Level Minneapolis Center
06:07PM 44.0408 -98.7967 79° East 547 629 35,000  Level Minneapolis Center
06:08PM 44.0733 -98.5503 80° East 543 625 35,000  Level Minneapolis Center
06:09PM 44.1011 -98.3428 79° East 545 627 35,000  Level Minneapolis Center
06:10PM 44.1331 -98.0947 80° East 545 627 35,000  Level Minneapolis Center
06:11PM 44.1578 -97.8858 81° East 546 628 35,000  Level Minneapolis Center
06:12PM 44.1833 -97.6781 80° East 546 628 35,000  Level Minneapolis Center
06:14PM 44.2111 -97.4700 79° East 548 631 35,000  Level Minneapolis Center
06:15PM 44.2450 -97.2650 77° East 545 627 35,000 -540 Level Minneapolis Center
06:16PM 44.2836 -97.0189 78° East 540 621 34,000 -1,020 Descending Minneapolis Center
06:17PM 44.3153 -96.8150 78° East 540 621 33,000 -1,020 Descending Minneapolis Center
06:18PM 44.3481 -96.6078 77° East 543 625 32,000 -1,020 Descending Minneapolis Center
06:19PM 44.3792 -96.4000 78° East 542 624 31,000 -1,020 Descending Minneapolis Center
06:20PM 44.4114 -96.1897 78° East 543 625 30,000 -960 Descending Minneapolis Center
06:21PM 44.4417 -95.9814 78° East 540 621 29,100 -540 Descending Minneapolis Center
06:22PM 44.4728 -95.7744 78° East 541 623 29,000 -300 Descending Minneapolis Center
06:23PM 44.5011 -95.5681 79° East 539 620 28,600 -1,080 Descending Minneapolis Center
06:24PM 44.5306 -95.3644 78° East 536 617 26,800 -2,100 Descending Minneapolis Center
06:25PM 44.5569 -95.1647 79° East 523 602 24,300 -2,640 Descending Minneapolis Center
06:26PM 44.5886 -94.9436 79° East 487 560 21,500 -2,580 Descending Minneapolis Center
06:27PM 44.6131 -94.7697 79° East 466 536 19,100 -2,100 Descending Minneapolis Center
06:28PM 44.6331 -94.6203 79° East 445 512 17,200 -2,100 Descending Minneapolis Center
06:29PM 44.6547 -94.4575 79° East 426 490 14,800 -2,580 Descending Minneapolis Center
06:30PM 44.6794 -94.2711 79° East 404 465 12,000 -1,860 Descending Minneapolis Center
06:31PM 44.7011 -94.1200 79° East 399 459 11,000 -540 Descending Minneapolis Center
06:32PM 44.7336 -93.9772 72° East 387 445 11,000  Level Minneapolis Center
06:33PM 44.7658 -93.8317 73° East 388 447 11,000  Level Minneapolis Center
06:34PM 44.7975 -93.6911 72° East 380 437 11,000 -60 Level Minneapolis Center
06:35PM 44.8286 -93.5492 73° East 378 435 10,900 -720 Descending Minneapolis Center
06:36PM 44.8544 -93.4275 73° East 319 367 9,600 -1,440 Descending Minneapolis Center
06:37PM 44.8275 -93.3200 109° East 298 343 8,000 -900 Descending Minneapolis Center
06:38PM 44.7853 -93.2269 123° Southeast 274 315 7,800 -960 Descending Minneapolis Center
06:39PM 44.7469 -93.1414 122° Southeast 248 285 6,100 -1,500 Descending Minneapolis Center
06:40PM 44.7439 -93.0625 93° East 224 258 4,800 -1,500 Descending Minneapolis Center
06:41PM 44.8014 -93.0603 North 193 222 3,100 -1,260 Descending Minneapolis Center
06:42PM 44.8347 -93.1117 312° West 181 208 2,300 -840 Descending Minneapolis Center
06:43PM 44.8547 -93.1583 301° West 144 166 1,500 -780 Descending Minneapolis Center